Time;durP1;ratioP1;P1;durP2;ratioP2;P2;SDS_P1;SDS_P2;PMS_P1;PMS_P2;Temp;Humidity;BMP_temperature;BMP_pressure;BME280_temperature;BME280_humidity;BME280_pressure;Samples;Min_cycle;Max_cycle;Signal;HPM_P1;HPM_P2
2021/07/12 00:01:34;;;;;;;18.45;10.90;;;;;;;17.22;100.00;101243.00;6275040;28;20048;-75
2021/07/12 00:04:35;;;;;;;14.98;11.50;;;;;;;17.18;100.00;101246.00;6275290;28;20052;-75
2021/07/12 00:07:37;;;;;;;15.13;12.05;;;;;;;17.15;100.00;101233.75;6275218;28;20420;-75
2021/07/12 00:10:38;;;;;;;18.70;11.82;;;;;;;17.14;100.00;101231.22;6274507;28;20467;-75
2021/07/12 00:13:40;;;;;;;12.80;11.38;;;;;;;17.09;100.00;101236.88;6274966;28;20053;-75
2021/07/12 00:16:43;;;;;;;14.18;11.25;;;;;;;17.07;100.00;101241.44;6274823;28;20048;-76
2021/07/12 00:19:44;;;;;;;14.48;12.63;;;;;;;17.07;100.00;101228.16;6274714;28;20056;-76
2021/07/12 00:22:47;;;;;;;16.23;11.73;;;;;;;17.05;100.00;101226.59;6274436;28;20511;-76
2021/07/12 00:25:48;;;;;;;15.07;12.32;;;;;;;16.98;100.00;101232.31;6274836;28;20519;-76
2021/07/12 00:28:50;;;;;;;12.95;10.80;;;;;;;16.95;100.00;101223.75;6274601;28;20053;-76
2021/07/12 00:31:53;;;;;;;13.80;11.40;;;;;;;16.92;100.00;101221.31;6274248;28;20044;-76
2021/07/12 00:34:54;;;;;;;13.15;11.63;;;;;;;16.87;100.00;101211.03;6274457;28;20052;-76
2021/07/12 00:37:56;;;;;;;13.82;12.05;;;;;;;16.85;100.00;101217.41;6274103;28;20056;-75
2021/07/12 00:40:57;;;;;;;13.88;12.23;;;;;;;16.81;100.00;101208.84;6267941;28;20049;-76
2021/07/12 00:43:58;;;;;;;15.95;12.23;;;;;;;16.81;100.00;101211.50;6270829;28;20056;-75
2021/07/12 00:47:01;;;;;;;13.52;11.48;;;;;;;16.77;100.00;101207.34;6274325;28;20053;-76
2021/07/12 00:50:06;;;;;;;15.48;12.10;;;;;;;16.74;100.00;101200.44;6273382;28;20049;-76
2021/07/12 00:53:09;;;;;;;15.70;12.02;;;;;;;16.73;100.00;101198.75;6274463;28;20056;-76
2021/07/12 00:56:10;;;;;;;15.77;12.13;;;;;;;16.71;100.00;101195.34;6270240;28;20049;-75
2021/07/12 00:59:12;;;;;;;16.85;11.95;;;;;;;16.67;100.00;101195.69;6248895;28;20053;-76
2021/07/12 01:02:14;;;;;;;15.88;12.43;;;;;;;16.67;100.00;101193.03;6248757;28;20060;-75
2021/07/12 01:05:18;;;;;;;13.52;12.13;;;;;;;16.66;100.00;101199.25;6248629;28;20053;-76
2021/07/12 01:08:20;;;;;;;19.88;12.75;;;;;;;16.64;100.00;101195.88;6248708;28;20054;-75
2021/07/12 01:11:29;;;;;;;14.90;12.00;;;;;;;16.64;100.00;101199.38;6248229;28;20041;-76
2021/07/12 01:14:44;;;;;;;14.52;11.70;;;;;;;16.62;100.00;101192.47;6248814;28;20045;-76
2021/07/12 01:18:02;;;;;;;14.05;12.23;;;;;;;16.60;100.00;101192.59;6248500;28;20413;-76
2021/07/12 01:21:49;;;;;;;18.50;12.70;;;;;;;16.60;100.00;101194.41;6248092;28;20064;-76
2021/07/12 01:25:29;;;;;;;15.20;12.90;;;;;;;16.61;100.00;101188.97;6248618;28;20052;-75
2021/07/12 01:29:02;;;;;;;18.67;12.80;;;;;;;16.60;100.00;101181.97;6248571;28;20059;-76
2021/07/12 01:32:45;;;;;;;18.48;12.88;;;;;;;16.56;100.00;101174.34;6247973;28;20049;-77
2021/07/12 01:35:57;;;;;;;16.50;13.43;;;;;;;16.56;100.00;101180.50;6247916;28;20406;-76
2021/07/12 01:39:05;;;;;;;15.75;13.38;;;;;;;16.53;100.00;101180.72;6248361;28;20060;-75
2021/07/12 01:42:07;;;;;;;15.80;11.63;;;;;;;16.49;100.00;101177.44;6248008;28;20067;-75
2021/07/12 01:45:12;;;;;;;13.93;12.23;;;;;;;16.51;100.00;101187.94;6248331;28;20056;-78
2021/07/12 01:48:23;;;;;;;15.63;12.32;;;;;;;16.47;100.00;101184.66;6247954;28;20051;-75
2021/07/12 01:51:31;;;;;;;22.85;13.57;;;;;;;16.44;100.00;101182.25;6247344;28;20068;-77
2021/07/12 01:54:37;;;;;;;16.63;11.95;;;;;;;16.41;100.00;101179.78;6246853;28;20045;-77
2021/07/12 01:57:45;;;;;;;15.70;12.15;;;;;;;16.43;100.00;101177.88;6247937;28;20045;-77
2021/07/12 02:00:49;;;;;;;15.20;12.52;;;;;;;16.38;100.00;101180.00;6247249;28;20053;-77
2021/07/12 02:03:53;;;;;;;18.02;13.15;;;;;;;16.39;100.00;101164.94;6247589;28;20052;-75
2021/07/12 02:06:57;;;;;;;19.00;12.57;;;;;;;16.38;100.00;101169.41;6247486;28;20049;-75
2021/07/12 02:10:01;;;;;;;15.55;13.20;;;;;;;16.35;100.00;101158.16;6247639;28;20045;-75
2021/07/12 02:13:05;;;;;;;15.52;11.98;;;;;;;16.32;100.00;101164.53;6247397;28;20109;-75
2021/07/12 02:16:08;;;;;;;17.05;12.00;;;;;;;16.29;100.00;101155.94;6247576;28;20492;-75
2021/07/12 02:19:11;;;;;;;22.65;13.40;;;;;;;16.31;100.00;101162.00;6247154;28;20053;-77
2021/07/12 02:22:13;;;;;;;16.33;12.52;;;;;;;16.30;100.00;101154.97;6247032;28;20048;-75
2021/07/12 02:25:17;;;;;;;18.13;11.88;;;;;;;16.22;100.00;101148.44;6247165;28;20444;-77
2021/07/12 02:28:20;;;;;;;17.98;12.07;;;;;;;16.20;100.00;101157.44;6247086;28;20049;-75
2021/07/12 02:31:22;;;;;;;15.65;12.23;;;;;;;16.17;100.00;101147.91;6246992;28;20041;-77
2021/07/12 02:34:26;;;;;;;13.60;12.20;;;;;;;16.17;100.00;101139.09;6247053;28;20057;-75
2021/07/12 02:37:28;;;;;;;15.05;12.57;;;;;;;16.16;100.00;101142.69;6247407;28;20050;-75
2021/07/12 02:40:30;;;;;;;15.40;11.43;;;;;;;16.13;100.00;101133.16;6246564;28;20496;-77
2021/07/12 02:43:33;;;;;;;17.98;14.88;;;;;;;16.08;100.00;101139.72;6247198;28;20061;-75
2021/07/12 02:46:35;;;;;;;15.55;11.52;;;;;;;16.08;100.00;101130.00;6246763;28;20053;-75
2021/07/12 02:49:38;;;;;;;19.63;12.45;;;;;;;15.97;100.00;101121.94;6246885;28;20136;-75
2021/07/12 02:52:44;;;;;;;12.95;10.98;;;;;;;15.99;100.00;101120.03;6246837;28;20048;-75
2021/07/12 02:55:45;;;;;;;15.73;12.07;;;;;;;16.00;100.00;101124.38;6256422;28;20064;-75
2021/07/12 02:58:47;;;;;;;16.70;11.75;;;;;;;15.97;100.00;101119.28;6255820;28;20045;-75
2021/07/12 03:01:49;;;;;;;16.50;11.70;;;;;;;15.95;100.00;101108.78;6247984;28;20409;-76
2021/07/12 03:04:51;;;;;;;14.98;11.07;;;;;;;15.95;100.00;101111.44;6265933;28;20052;-75
2021/07/12 03:08:02;;;;;;;17.38;11.32;;;;;;;15.92;100.00;101105.50;6275478;28;20056;-75
2021/07/12 03:11:07;;;;;;;17.83;11.50;;;;;;;15.87;100.00;101104.97;6271133;28;20046;-74
2021/07/12 03:14:14;;;;;;;15.95;11.38;;;;;;;15.85;100.00;101097.16;6251288;28;20421;-75
2021/07/12 03:17:16;;;;;;;14.23;11.52;;;;;;;15.88;100.00;101107.50;6251428;28;20130;-75
2021/07/12 03:20:20;;;;;;;17.73;11.63;;;;;;;15.87;100.00;101102.34;6250981;28;20076;-75
2021/07/12 03:23:23;;;;;;;19.90;11.88;;;;;;;15.85;100.00;101099.78;6251254;28;20042;-77
2021/07/12 03:26:25;;;;;;;14.10;11.02;;;;;;;15.83;100.00;101099.03;6251219;28;20061;-77
2021/07/12 03:29:28;;;;;;;17.00;11.38;;;;;;;15.83;100.00;101093.75;6251233;28;20056;-75
2021/07/12 03:32:31;;;;;;;13.00;11.10;;;;;;;15.86;100.00;101090.03;6251143;28;20065;-77
2021/07/12 03:35:37;;;;;;;16.90;11.35;;;;;;;15.85;100.00;101086.53;6251213;28;20115;-75
2021/07/12 03:38:39;;;;;;;19.60;11.20;;;;;;;15.84;100.00;101079.53;6250965;28;20068;-74
2021/07/12 03:41:41;;;;;;;14.18;11.80;;;;;;;15.80;100.00;101083.34;6250685;28;20056;-75
2021/07/12 03:44:42;;;;;;;16.50;12.40;;;;;;;15.75;100.00;101079.31;6251111;28;20060;-74
2021/07/12 03:47:45;;;;;;;15.30;11.65;;;;;;;15.74;100.00;101078.47;6250948;28;20053;-75
2021/07/12 03:50:48;;;;;;;17.88;12.98;;;;;;;15.78;100.00;101085.25;6250302;28;20674;-75
2021/07/12 03:53:49;;;;;;;15.82;11.93;;;;;;;15.78;100.00;101084.41;6250394;28;20053;-75
2021/07/12 03:56:51;;;;;;;16.85;13.23;;;;;;;15.83;100.00;101082.28;6250524;28;20076;-75
2021/07/12 03:59:52;;;;;;;15.45;13.63;;;;;;;15.82;100.00;101076.16;6249979;28;20057;-75
2021/07/12 04:02:53;;;;;;;22.27;13.82;;;;;;;15.85;100.00;101080.38;6250478;28;20049;-75
2021/07/12 04:05:56;;;;;;;17.15;13.70;;;;;;;15.87;100.00;101076.66;6250275;28;20049;-75
2021/07/12 04:08:58;;;;;;;16.13;12.98;;;;;;;15.88;100.00;101073.06;6250201;28;20049;-75
2021/07/12 04:11:59;;;;;;;15.02;12.90;;;;;;;15.93;100.00;101085.97;6250525;28;20239;-75
2021/07/12 04:15:00;;;;;;;17.27;12.82;;;;;;;15.94;100.00;101088.56;6261108;28;20059;-75
2021/07/12 04:18:02;;;;;;;19.75;13.50;;;;;;;15.98;100.00;101097.94;6259668;28;20057;-75
2021/07/12 04:21:04;;;;;;;21.10;13.10;;;;;;;16.02;100.00;101111.00;6260056;28;20508;-75
2021/07/12 04:24:06;;;;;;;16.15;13.10;;;;;;;16.00;100.00;101104.97;6259308;28;20057;-75
2021/07/12 04:27:07;;;;;;;17.10;13.05;;;;;;;15.97;100.00;101106.03;6249672;28;20647;-74
2021/07/12 04:30:10;;;;;;;18.60;12.80;;;;;;;16.02;100.00;101111.00;6249702;28;20056;-75
2021/07/12 04:33:11;;;;;;;17.40;12.95;;;;;;;16.08;100.00;101115.84;6257323;28;20053;-75
2021/07/12 04:36:14;;;;;;;22.15;14.07;;;;;;;16.12;100.00;101123.50;6265156;28;20045;-76
2021/07/12 04:39:15;;;;;;;14.88;12.93;;;;;;;16.15;100.00;101123.28;6256986;28;20489;-75
2021/07/12 04:42:17;;;;;;;13.02;11.65;;;;;;;16.17;100.00;101129.34;6254270;28;20413;-76
2021/07/12 04:45:18;;;;;;;15.55;12.10;;;;;;;16.18;100.00;101128.38;6249069;28;20063;-75
2021/07/12 04:48:20;;;;;;;15.85;13.32;;;;;;;16.20;100.00;101121.16;6249053;28;20053;-76
2021/07/12 04:51:23;;;;;;;16.15;12.05;;;;;;;16.24;100.00;101119.13;6248396;28;20042;-76
2021/07/12 04:54:24;;;;;;;14.70;12.82;;;;;;;16.28;100.00;101117.97;6249241;28;20485;-75
2021/07/12 04:57:25;;;;;;;18.27;14.68;;;;;;;16.29;100.00;101124.94;6248905;28;20049;-75
2021/07/12 05:00:27;;;;;;;17.08;13.70;;;;;;;16.33;100.00;101118.47;6248913;28;20052;-75
2021/07/12 05:03:32;;;;;;;18.70;13.52;;;;;;;16.35;100.00;101119.22;6248860;28;20050;-75
2021/07/12 05:06:35;;;;;;;13.57;11.75;;;;;;;16.37;100.00;101117.31;6248320;28;20060;-75
2021/07/12 05:09:37;;;;;;;20.48;14.55;;;;;;;16.40;100.00;101113.59;6247963;28;20046;-75
2021/07/12 05:12:39;;;;;;;19.08;13.48;;;;;;;16.41;100.00;101100.22;6248060;28;20424;-75
2021/07/12 05:15:41;;;;;;;20.08;13.75;;;;;;;16.43;100.00;101106.25;6248165;28;20390;-75
2021/07/12 05:18:42;;;;;;;17.20;13.60;;;;;;;16.43;100.00;101105.41;6247837;28;20511;-75
2021/07/12 05:21:45;;;;;;;15.98;11.93;;;;;;;16.46;100.00;101106.03;6247912;28;20056;-75
2021/07/12 05:24:46;;;;;;;19.00;13.95;;;;;;;16.45;100.00;101107.00;6247768;28;20053;-74
2021/07/12 05:27:48;;;;;;;17.88;13.73;;;;;;;16.47;100.00;101104.22;6248077;28;20049;-75
2021/07/12 05:30:49;;;;;;;16.15;13.45;;;;;;;16.52;100.00;101112.69;6247382;28;20045;-77
2021/07/12 05:33:51;;;;;;;15.00;12.57;;;;;;;16.60;100.00;101109.50;6247605;28;20060;-74
2021/07/12 05:36:53;;;;;;;15.73;12.40;;;;;;;16.61;100.00;101108.53;6247954;28;20049;-75
2021/07/12 05:39:55;;;;;;;15.77;13.43;;;;;;;16.65;100.00;101108.19;6247273;28;20052;-75
2021/07/12 05:42:57;;;;;;;30.58;22.98;;;;;;;16.68;100.00;101100.00;6247706;28;20050;-75
2021/07/12 05:45:59;;;;;;;22.27;16.23;;;;;;;16.72;100.00;101101.53;6247487;28;20412;-75
2021/07/12 05:49:00;;;;;;;15.07;12.85;;;;;;;16.74;100.00;101090.78;6247719;28;20056;-75
2021/07/12 05:52:03;;;;;;;18.88;13.27;;;;;;;16.75;100.00;101092.47;6246928;28;20049;-75
2021/07/12 05:55:05;;;;;;;16.77;12.75;;;;;;;16.80;100.00;101089.47;6271466;28;20056;-74
2021/07/12 05:58:07;;;;;;;20.00;14.25;;;;;;;16.83;100.00;101090.09;6271277;28;20909;-74
2021/07/12 06:01:08;;;;;;;18.27;13.75;;;;;;;16.90;100.00;101085.19;6271913;28;20053;-74
2021/07/12 06:04:09;;;;;;;18.88;12.52;;;;;;;17.02;100.00;101081.59;6271857;28;20057;-74
2021/07/12 06:07:12;;;;;;;17.15;13.02;;;;;;;17.06;100.00;101076.91;6272109;28;20075;-75
2021/07/12 06:10:14;;;;;;;18.77;13.20;;;;;;;17.13;100.00;101073.69;6271715;28;20056;-75
2021/07/12 06:13:15;;;;;;;18.95;14.70;;;;;;;17.19;100.00;101067.06;6271531;28;20511;-75
2021/07/12 06:16:17;;;;;;;22.05;16.42;;;;;;;17.24;100.00;101065.75;6271864;28;20052;-75
2021/07/12 06:19:18;;;;;;;23.58;15.85;;;;;;;17.38;100.00;101061.19;6271535;28;20435;-75
2021/07/12 06:22:21;;;;;;;23.33;15.85;;;;;;;17.41;100.00;101061.81;6270333;28;20041;-75
2021/07/12 06:25:22;;;;;;;20.98;13.95;;;;;;;17.46;100.00;101059.63;6271370;28;20397;-75
2021/07/12 06:28:23;;;;;;;22.27;14.85;;;;;;;17.50;100.00;101050.47;6271751;28;20044;-75
2021/07/12 06:31:25;;;;;;;22.55;14.68;;;;;;;17.56;100.00;101043.81;6270830;28;20044;-74
2021/07/12 06:34:26;;;;;;;19.58;13.30;;;;;;;17.62;100.00;101048.69;6271608;28;20049;-75
2021/07/12 06:37:29;;;;;;;21.75;15.38;;;;;;;17.67;100.00;101043.84;6271351;28;20056;-75
2021/07/12 06:40:30;;;;;;;23.17;15.30;;;;;;;17.73;100.00;101024.78;6271283;28;20049;-75
2021/07/12 06:43:32;;;;;;;26.60;17.88;;;;;;;17.84;100.00;101036.38;6276764;28;20067;-75
2021/07/12 06:46:33;;;;;;;42.65;31.83;;;;;;;17.89;100.00;101023.53;6276510;28;20060;-75
2021/07/12 06:49:34;;;;;;;27.85;19.27;;;;;;;17.96;100.00;101032.75;6276395;28;20045;-75
2021/07/12 06:52:37;;;;;;;23.77;16.70;;;;;;;18.06;100.00;101030.19;6275381;28;20052;-74
2021/07/12 06:55:38;;;;;;;20.92;15.10;;;;;;;18.20;100.00;101028.09;6274856;28;20049;-74
2021/07/12 06:58:40;;;;;;;20.20;14.48;;;;;;;18.28;100.00;101034.63;6274812;28;20053;-74
2021/07/12 07:01:42;;;;;;;18.40;13.45;;;;;;;18.37;100.00;101028.56;6274696;28;20623;-74
2021/07/12 07:04:43;;;;;;;18.42;13.50;;;;;;;18.44;100.00;101027.94;6275931;28;20492;-75
2021/07/12 07:07:46;;;;;;;19.20;11.98;;;;;;;18.58;100.00;101034.78;6275166;28;20052;-74
2021/07/12 07:10:47;;;;;;;16.77;11.05;;;;;;;18.66;100.00;101042.13;6275206;28;20497;-74
2021/07/12 07:13:49;;;;;;;15.40;11.32;;;;;;;18.81;100.00;101046.22;6275676;28;20049;-75
2021/07/12 07:16:50;;;;;;;13.35;10.27;;;;;;;18.91;100.00;101035.66;6275712;28;20607;-74
2021/07/12 07:19:52;;;;;;;13.35;10.35;;;;;;;18.97;100.00;101043.94;6274106;28;20056;-74
2021/07/12 07:22:55;;;;;;;13.65;10.38;;;;;;;19.09;100.00;101038.56;6275473;28;20045;-74
2021/07/12 07:25:56;;;;;;;17.33;10.77;;;;;;;19.12;100.00;101049.84;6275034;28;20053;-74
2021/07/12 07:28:57;;;;;;;16.88;9.25;;;;;;;19.16;100.00;101045.06;6274238;28;20511;-75
2021/07/12 07:31:59;;;;;;;11.32;8.73;;;;;;;19.20;100.00;101036.69;6273585;28;20049;-74
2021/07/12 07:35:00;;;;;;;12.95;8.98;;;;;;;19.32;100.00;101042.78;6274988;28;20432;-74
2021/07/12 07:38:03;;;;;;;14.15;9.60;;;;;;;19.41;100.00;101047.34;6275143;28;20496;-75
2021/07/12 07:41:05;;;;;;;12.82;9.57;;;;;;;19.45;100.00;101039.94;6275026;28;20052;-75
2021/07/12 07:44:07;;;;;;;15.48;9.27;;;;;;;19.75;100.00;101041.78;6275134;28;20060;-75
2021/07/12 07:47:10;;;;;;;11.20;8.57;;;;;;;19.63;100.00;101043.69;6274286;28;20514;-75
2021/07/12 07:50:12;;;;;;;9.27;7.82;;;;;;;19.63;100.00;101053.53;6270108;28;20135;-75
2021/07/12 07:53:16;;;;;;;11.95;8.05;;;;;;;19.66;100.00;101053.25;6261285;28;20052;-75
2021/07/12 07:56:18;;;;;;;11.88;6.78;;;;;;;19.85;100.00;101065.81;6264856;28;20050;-75
2021/07/12 07:59:19;;;;;;;12.73;7.50;;;;;;;19.85;100.00;101057.81;6264950;28;20515;-75
2021/07/12 08:02:20;;;;;;;7.68;6.63;;;;;;;19.90;100.00;101055.63;6265671;28;20048;-75
2021/07/12 08:05:23;;;;;;;7.40;6.30;;;;;;;19.91;100.00;101054.63;6263716;28;20052;-75
2021/07/12 08:08:25;;;;;;;7.25;6.55;;;;;;;19.91;100.00;101047.47;6264946;28;20060;-75
2021/07/12 08:11:27;;;;;;;10.35;6.50;;;;;;;19.92;100.00;101041.16;6267619;28;20056;-75
2021/07/12 08:14:28;;;;;;;12.20;7.30;;;;;;;19.94;100.00;101046.34;6260382;28;20045;-74
2021/07/12 08:17:30;;;;;;;6.82;5.65;;;;;;;19.98;100.00;101040.63;6264471;28;20052;-75
2021/07/12 08:20:32;;;;;;;7.88;5.28;;;;;;;20.02;100.00;101042.00;6256579;28;20045;-75
2021/07/12 08:23:34;;;;;;;6.60;5.30;;;;;;;19.99;100.00;101050.31;6262932;28;20175;-74
2021/07/12 08:26:36;;;;;;;6.13;4.60;;;;;;;20.10;100.00;101048.50;6260761;28;20477;-75
2021/07/12 08:29:37;;;;;;;5.97;5.07;;;;;;;20.15;100.00;101051.59;6258729;28;20507;-76
2021/07/12 08:32:39;;;;;;;9.75;5.88;;;;;;;20.19;100.00;101053.03;6260999;28;20056;-75
2021/07/12 08:35:41;;;;;;;6.78;5.38;;;;;;;20.25;99.66;101039.13;6259424;28;20049;-76
2021/07/12 08:38:43;;;;;;;5.93;5.25;;;;;;;20.24;100.00;101037.44;6267883;28;20045;-75
2021/07/12 08:41:45;;;;;;;12.23;5.70;;;;;;;20.31;100.00;101030.59;6264925;28;20037;-76
2021/07/12 08:44:47;;;;;;;7.03;6.13;;;;;;;20.39;100.00;101019.19;6261436;28;20054;-76
2021/07/12 08:47:48;;;;;;;8.82;5.90;;;;;;;20.46;100.00;101023.84;6270549;28;20057;-76
2021/07/12 08:50:50;;;;;;;7.60;5.88;;;;;;;20.52;100.00;101011.78;6267668;28;20049;-76
2021/07/12 08:53:53;;;;;;;8.27;5.45;;;;;;;20.55;100.00;101008.84;6273156;28;20067;-75
2021/07/12 08:56:54;;;;;;;5.90;5.30;;;;;;;20.61;100.00;101010.13;6273530;28;20052;-76
2021/07/12 08:59:56;;;;;;;7.97;5.60;;;;;;;20.64;100.00;100993.81;6272418;28;20144;-75
2021/07/12 09:02:58;;;;;;;6.53;5.50;;;;;;;20.59;100.00;100994.25;6272995;28;20178;-76
2021/07/12 09:06:09;;;;;;;6.00;5.40;;;;;;;20.60;97.72;100995.09;6272611;28;20055;-75
2021/07/12 09:09:20;;;;;;;8.60;5.32;;;;;;;20.61;98.28;100989.59;6273044;28;20419;-76
2021/07/12 09:12:22;;;;;;;11.52;6.55;;;;;;;20.77;100.00;100983.69;6272501;28;20510;-76
2021/07/12 09:15:25;;;;;;;7.63;6.20;;;;;;;20.83;100.00;100975.09;6272510;28;20052;-75
2021/07/12 09:18:35;;;;;;;6.57;5.03;;;;;;;20.93;100.00;100985.78;6268812;28;20049;-75
2021/07/12 09:21:39;;;;;;;8.50;5.30;;;;;;;21.02;100.00;100995.59;6271026;28;20048;-77
2021/07/12 09:24:49;;;;;;;6.38;4.80;;;;;;;21.09;99.41;100987.88;6267696;28;20044;-75
2021/07/12 09:27:56;;;;;;;10.85;5.00;;;;;;;21.08;98.97;100987.03;6255347;28;20060;-74
2021/07/12 09:30:57;;;;;;;5.05;4.55;;;;;;;21.16;99.26;100986.28;6265019;28;20056;-75
2021/07/12 09:34:00;;;;;;;6.75;5.55;;;;;;;21.12;98.71;100987.56;6269612;28;20211;-75
2021/07/12 09:37:02;;;;;;;7.57;4.95;;;;;;;21.23;100.00;100977.56;6249315;28;20057;-75
2021/07/12 09:40:07;;;;;;;5.43;4.32;;;;;;;21.37;98.64;100970.91;6249353;28;20076;-75
2021/07/12 09:43:09;;;;;;;4.60;4.20;;;;;;;21.46;99.08;100967.38;6250805;28;20048;-75
2021/07/12 09:46:28;;;;;;;5.60;4.13;;;;;;;21.42;95.46;100967.81;6255032;28;20496;-75
2021/07/12 09:49:29;;;;;;;;;;;;;;;21.39;98.28;100974.31;6247690;28;20050;-75
2021/07/12 09:52:39;;;;;;;5.50;4.70;;;;;;;21.36;92.98;100969.25;6246515;28;19928;-74
2021/07/12 09:55:42;;;;;;;6.82;4.40;;;;;;;21.42;94.79;100963.31;6246446;28;20183;-75
2021/07/12 09:58:45;;;;;;;5.72;4.80;;;;;;;21.37;95.46;100962.91;6246594;28;20050;-75
2021/07/12 10:01:51;;;;;;;4.68;4.28;;;;;;;21.35;96.59;100959.53;6244938;28;20049;-75
2021/07/12 10:04:57;;;;;;;4.63;4.07;;;;;;;21.38;96.29;100953.88;6245800;28;20056;-74
2021/07/12 10:07:59;;;;;;;7.95;4.28;;;;;;;21.59;92.61;100950.16;6246154;28;20429;-75
2021/07/12 10:11:02;;;;;;;7.10;4.45;;;;;;;21.55;93.07;100944.25;6289221;22;20053;-82
2021/07/12 10:14:04;;;;;;;6.40;4.28;;;;;;;21.56;94.15;100942.41;6258791;28;20623;-80
2021/07/12 10:17:07;;;;;;;5.43;4.90;;;;;;;21.63;94.28;100943.53;6276369;28;20080;-82
2021/07/12 10:20:09;;;;;;;7.80;5.20;;;;;;;21.66;93.81;100937.84;6274806;28;20622;-81
2021/07/12 10:23:12;;;;;;;6.22;5.03;;;;;;;21.62;93.30;100936.47;6276367;28;20052;-81
2021/07/12 10:26:44;;;;;;;6.85;5.53;;;;;;;21.68;95.37;100931.38;6275586;28;20152;-80
2021/07/12 10:29:46;;;;;;;6.18;5.57;;;;;;;21.62;97.80;100931.13;6277286;28;20146;-80
2021/07/12 10:32:52;;;;;;;8.90;6.25;;;;;;;21.60;95.15;100933.94;6274032;28;20416;-78
2021/07/12 10:35:55;;;;;;;9.63;6.28;;;;;;;21.74;95.46;100921.91;6279955;28;20048;-80
2021/07/12 10:38:56;;;;;;;10.95;6.72;;;;;;;21.79;95.13;100922.28;6280739;28;20060;-80
2021/07/12 10:41:59;;;;;;;8.95;6.18;;;;;;;21.98;93.99;100919.50;6278917;28;20052;-80
2021/07/12 10:45:11;;;;;;;8.93;5.68;;;;;;;22.07;91.82;100919.56;6278457;28;20120;-79
2021/07/12 10:48:15;;;;;;;9.82;5.47;;;;;;;22.04;94.34;100920.72;6278748;28;20095;-79
2021/07/12 10:51:18;;;;;;;12.90;6.47;;;;;;;22.04;93.62;100913.53;6277924;28;20048;-78
2021/07/12 10:54:20;;;;;;;10.05;6.18;;;;;;;21.99;94.19;100912.31;6278157;28;20183;-81
2021/07/12 10:57:23;;;;;;;6.78;5.72;;;;;;;21.92;96.24;100916.59;6276901;28;20488;-80
2021/07/12 11:00:36;;;;;;;8.82;5.88;;;;;;;21.98;94.12;100906.13;6278801;28;20484;-80
2021/07/12 11:03:40;;;;;;;6.90;5.72;;;;;;;22.04;94.67;100908.19;6280694;28;20060;-80
2021/07/12 11:06:54;;;;;;;6.50;5.40;;;;;;;22.02;91.78;100902.13;6279992;28;20049;-81
2021/07/12 11:10:00;;;;;;;5.72;5.10;;;;;;;22.05;93.67;100909.03;6281542;28;20052;-80
2021/07/12 11:13:04;;;;;;;8.73;5.05;;;;;;;22.35;90.80;100899.81;6281982;28;20518;-81
2021/07/12 11:16:15;;;;;;;6.38;5.00;;;;;;;22.74;87.45;100897.56;6279610;28;20045;-79
2021/07/12 11:19:20;;;;;;;5.47;4.80;;;;;;;23.14;87.17;100890.81;6278691;28;20080;-79
2021/07/12 11:22:25;;;;;;;7.95;4.30;;;;;;;23.36;82.82;100885.88;6278092;28;20079;-79
2021/07/12 11:25:39;;;;;;;6.63;4.50;;;;;;;23.55;86.17;100883.78;6280123;28;20088;-80
2021/07/12 11:28:44;;;;;;;7.53;4.70;;;;;;;23.66;82.98;100879.97;6284718;28;20052;-79
2021/07/12 11:31:48;;;;;;;6.05;4.25;;;;;;;23.86;81.30;100880.53;6282304;28;20041;-80
2021/07/12 11:34:54;;;;;;;6.13;4.60;;;;;;;24.11;82.13;100873.34;6279868;28;20049;-80
2021/07/12 11:37:58;;;;;;;8.05;4.78;;;;;;;24.25;79.36;100864.63;6281987;28;20049;-79
2021/07/12 11:41:06;;;;;;;7.55;5.20;;;;;;;24.32;81.13;100859.41;6277861;28;20049;-78
2021/07/12 11:44:10;;;;;;;4.57;3.97;;;;;;;24.31;78.66;100857.75;6278978;28;20056;-79
2021/07/12 11:47:16;;;;;;;4.70;4.20;;;;;;;24.22;78.67;100851.53;6281750;28;20049;-80
2021/07/12 11:50:19;;;;;;;10.50;4.43;;;;;;;23.95;77.61;100846.50;6279974;28;20053;-79
2021/07/12 11:53:21;;;;;;;4.18;3.78;;;;;;;23.80;78.64;100859.72;6279343;28;20128;-79
2021/07/12 11:56:22;;;;;;;5.30;3.97;;;;;;;24.08;79.27;100841.47;6280302;28;20052;-78
2021/07/12 11:59:45;;;;;;;5.35;4.70;;;;;;;24.53;79.77;100835.59;6276763;28;20064;-79
2021/07/12 12:02:47;;;;;;;6.07;4.15;;;;;;;24.95;79.42;100845.22;6269105;28;20049;-79
2021/07/12 12:05:48;;;;;;;4.40;3.80;;;;;;;25.29;74.47;100828.78;6281112;28;20053;-79
2021/07/12 12:08:57;;;;;;;8.90;3.80;;;;;;;25.55;71.37;100825.81;6282816;28;20108;-79
2021/07/12 12:11:59;;;;;;;4.90;3.70;;;;;;;25.64;74.15;100828.44;6282133;28;20064;-78
2021/07/12 12:15:05;;;;;;;4.45;3.65;;;;;;;25.35;72.90;100824.59;6282722;28;20538;-80
2021/07/12 12:18:09;;;;;;;5.03;4.30;;;;;;;24.98;74.82;100827.88;6279914;28;20056;-79
2021/07/12 12:21:12;;;;;;;7.53;3.70;;;;;;;24.60;75.79;100827.66;6273888;28;20060;-80
2021/07/12 12:24:13;;;;;;;4.85;3.92;;;;;;;24.30;76.61;100819.31;6280581;28;20586;-80
2021/07/12 12:27:15;;;;;;;4.55;4.10;;;;;;;24.08;78.22;100821.84;6269890;28;20425;-80
2021/07/12 12:30:18;;;;;;;4.95;4.10;;;;;;;23.91;83.10;100829.03;6258080;28;20053;-82
2021/07/12 12:33:26;;;;;;;7.75;4.18;;;;;;;23.79;83.37;100837.38;6254311;28;20559;-80
2021/07/12 12:36:29;;;;;;;4.85;4.30;;;;;;;23.78;81.75;100832.19;6269081;28;20049;-79
2021/07/12 12:39:31;;;;;;;4.95;3.92;;;;;;;24.26;80.53;100828.69;6277276;28;20053;-79
2021/07/12 12:42:32;;;;;;;10.75;3.60;;;;;;;24.38;79.68;100823.00;6276123;28;20501;-79
2021/07/12 12:45:35;;;;;;;9.00;4.07;;;;;;;24.09;79.05;100829.72;6276636;28;20044;-78
2021/07/12 12:48:40;;;;;;;4.45;3.63;;;;;;;23.92;81.43;100831.53;6278705;28;20049;-79
2021/07/12 12:51:51;;;;;;;5.22;3.75;;;;;;;23.61;81.39;100835.81;6276766;28;20049;-79
2021/07/12 12:54:53;;;;;;;4.75;3.67;;;;;;;23.47;78.51;100837.28;6273041;28;20103;-80
2021/07/12 12:57:54;;;;;;;8.43;3.92;;;;;;;23.54;76.15;100828.44;6275795;28;20427;-80
2021/07/12 13:00:57;;;;;;;5.40;3.75;;;;;;;23.33;81.77;100832.56;6275601;28;20056;-79
2021/07/12 13:04:09;;;;;;;7.70;3.85;;;;;;;23.29;79.83;100821.31;6273381;28;20488;-79
2021/07/12 13:07:13;;;;;;;7.82;4.03;;;;;;;23.24;76.42;100821.81;6263855;28;20060;-80
2021/07/12 13:10:18;;;;;;;7.88;4.22;;;;;;;23.26;77.79;100818.97;6280533;28;20503;-82
2021/07/12 13:13:27;;;;;;;7.75;4.65;;;;;;;23.22;80.19;100817.63;6281937;28;20052;-80
2021/07/12 13:16:30;;;;;;;6.70;4.35;;;;;;;23.10;80.36;100813.53;6280866;28;20126;-80
2021/07/12 13:19:31;;;;;;;8.60;4.70;;;;;;;23.20;80.17;100809.72;6271777;28;20053;-80
2021/07/12 13:22:34;;;;;;;7.07;4.82;;;;;;;23.54;79.38;100806.97;6276542;28;20067;-81
2021/07/12 13:25:38;;;;;;;6.28;4.72;;;;;;;23.79;78.18;100798.97;6278114;28;20053;-82
2021/07/12 13:28:40;;;;;;;5.13;4.38;;;;;;;23.80;76.81;100806.06;6276680;28;20044;-80
2021/07/12 13:31:43;;;;;;;9.90;4.82;;;;;;;23.74;79.95;100809.38;6274328;28;20135;-82
2021/07/12 13:34:52;;;;;;;4.70;4.15;;;;;;;23.73;78.79;100803.19;6272142;28;20048;-82
2021/07/12 13:37:56;;;;;;;7.00;4.35;;;;;;;23.83;78.06;100803.00;6274575;28;20060;-81
2021/07/12 13:40:57;;;;;;;6.10;4.70;;;;;;;23.92;78.72;100796.63;6273028;28;20051;-81
2021/07/12 13:43:58;;;;;;;6.90;4.55;;;;;;;24.13;82.23;100792.63;6275321;28;20045;-76
2021/07/12 13:47:01;;;;;;;7.50;4.75;;;;;;;24.03;80.83;100795.50;6274502;28;20049;-80
2021/07/12 13:50:04;;;;;;;6.32;4.50;;;;;;;23.94;79.01;100791.13;6274002;28;20059;-80
2021/07/12 13:53:07;;;;;;;8.77;4.95;;;;;;;23.92;80.17;100791.28;6274250;28;20045;-79
2021/07/12 13:56:09;;;;;;;7.00;4.38;;;;;;;23.83;84.48;100797.66;6274654;28;20056;-81
2021/07/12 13:59:10;;;;;;;5.72;4.18;;;;;;;23.75;81.76;100795.81;6274388;28;20048;-80